createdAt,value
2019-04-23T00:02:26.544Z,50.30
2019-04-23T00:04:55.552Z,50.00
2019-04-23T00:07:40.077Z,49.80
2019-04-23T00:09:56.877Z,50.00
2019-04-23T00:12:40.496Z,50.60
2019-04-23T00:15:04.851Z,50.10
2019-04-23T00:17:37.363Z,50.80
2019-04-23T00:20:06.461Z,51.30
2019-04-23T00:22:36.983Z,51.00
2019-04-23T00:25:47.092Z,51.30
2019-04-23T00:27:59.441Z,51.20
2019-04-23T00:30:36.264Z,51.30
2019-04-23T00:33:01.607Z,51.20
2019-04-23T00:35:25.518Z,51.70
2019-04-23T00:38:05.538Z,51.30
2019-04-23T00:40:37.518Z,51.70
2019-04-23T00:43:01.954Z,51.40
2019-04-23T00:48:09.264Z,51.50
2019-04-23T00:50:38.544Z,52.10
2019-04-23T00:53:04.576Z,52.70
2019-04-23T00:55:35.706Z,53.50
2019-04-23T00:58:06.579Z,52.80
2019-04-23T01:00:42.431Z,53.50
2019-04-23T01:05:35.311Z,54.20
2019-04-23T01:08:13.011Z,53.80
2019-04-23T01:13:39.361Z,55.00
2019-04-23T01:16:08.518Z,55.10
2019-04-23T01:18:58.103Z,55.30
2019-04-23T01:21:22.380Z,55.80
2019-04-23T01:24:00.306Z,56.00
2019-04-23T01:26:50.314Z,56.00
2019-04-23T01:29:33.355Z,55.60
2019-04-23T01:31:55.115Z,55.50
2019-04-23T01:34:24.444Z,55.30
2019-04-23T01:37:01.159Z,55.40
2019-04-23T01:39:23.142Z,54.30
2019-04-23T01:42:07.105Z,54.80
2019-04-23T01:44:34.187Z,55.90
2019-04-23T01:46:56.215Z,56.00
2019-04-23T01:49:31.244Z,57.00
2019-04-23T01:54:28.850Z,57.10
2019-04-23T01:56:59.406Z,57.10
2019-04-23T01:59:26.240Z,57.00
2019-04-23T02:01:58.476Z,56.80
2019-04-23T02:04:28.430Z,57.20
2019-04-23T02:06:59.291Z,56.70
2019-04-23T02:09:37.280Z,57.10
2019-04-23T02:12:02.963Z,56.00
2019-04-23T02:14:34.594Z,56.10
2019-04-23T02:17:00.219Z,55.40
2019-04-23T02:19:40.112Z,55.20
2019-04-23T02:22:08.017Z,55.60
2019-04-23T02:24:41.307Z,56.70
2019-04-23T02:27:17.251Z,56.90
2019-04-23T02:29:54.105Z,56.50
2019-04-23T02:32:23.769Z,56.70
2019-04-23T02:34:52.404Z,56.90
2019-04-23T02:37:24.461Z,56.00
2019-04-23T02:40:09.066Z,56.40
2019-04-23T02:44:51.259Z,56.50
2019-04-23T02:47:31.924Z,57.60
2019-04-23T02:49:55.395Z,57.60
2019-04-23T02:54:51.018Z,58.70
2019-04-23T02:57:12.821Z,58.30
2019-04-23T03:00:07.945Z,59.30
2019-04-23T03:04:50.064Z,61.20
2019-04-23T03:07:30.668Z,61.70
2019-04-23T03:12:25.040Z,60.00
2019-04-23T03:15:11.009Z,59.70
2019-04-23T03:17:35.788Z,58.70
2019-04-23T03:20:21.492Z,59.80
2019-04-23T03:22:56.119Z,59.50
2019-04-23T03:25:38.158Z,60.00
2019-04-23T03:28:07.239Z,59.10
2019-04-23T03:32:31.139Z,59.20
2019-04-23T03:38:35.172Z,59.90
2019-04-23T03:40:46.487Z,59.60
2019-04-23T03:43:28.809Z,59.40
2019-04-23T03:46:04.344Z,58.90
2019-04-23T03:48:27.015Z,59.10
2019-04-23T03:53:24.388Z,59.30
2019-04-23T03:55:56.196Z,58.70
2019-04-23T04:03:42.240Z,59.50
2019-04-23T04:05:56.609Z,59.00
2019-04-23T04:11:11.303Z,58.60
2019-04-23T04:23:33.316Z,58.90
2019-04-23T04:26:00.872Z,59.30
2019-04-23T04:28:28.753Z,59.30
2019-04-23T04:33:36.505Z,60.30
2019-04-23T04:36:07.859Z,60.40
2019-04-23T04:43:31.613Z,60.60
2019-04-23T04:48:35.475Z,60.00
2019-04-23T04:56:07.628Z,60.90
2019-04-23T04:58:32.277Z,60.30
2019-04-23T05:03:28.479Z,60.70
2019-04-23T05:08:37.294Z,60.00
2019-04-23T05:11:21.624Z,60.90
2019-04-23T05:13:39.211Z,60.30
2019-04-23T05:15:58.091Z,60.90
2019-04-23T05:21:08.250Z,61.90
2019-04-23T05:23:54.347Z,61.50
2019-04-23T05:26:13.568Z,61.20
2019-04-23T05:28:51.652Z,60.70
2019-04-23T05:31:17.187Z,61.20
2019-04-23T05:33:41.521Z,60.30
2019-04-23T05:38:50.724Z,59.00
2019-04-23T05:41:16.983Z,60.00
2019-04-23T05:43:46.708Z,59.70
2019-04-23T05:46:25.060Z,59.60
2019-04-23T05:48:49.178Z,59.10
2019-04-23T05:53:45.082Z,58.60
2019-04-23T05:56:13.184Z,58.60
2019-04-23T05:58:43.701Z,58.80
2019-04-23T06:01:41.700Z,59.80
2019-04-23T06:03:56.750Z,59.50
2019-04-23T06:06:29.458Z,59.80
2019-04-23T06:11:28.487Z,59.60
2019-04-23T06:14:05.313Z,60.00
2019-04-23T06:16:33.009Z,59.40
2019-04-23T06:19:02.761Z,58.70
2019-04-23T06:21:33.993Z,58.70
2019-04-23T06:23:58.521Z,59.20
2019-04-23T06:28:59.482Z,58.00
2019-04-23T06:31:34.236Z,58.10
2019-04-23T06:34:02.714Z,57.90
2019-04-23T06:39:08.413Z,58.10
2019-04-23T06:41:31.234Z,57.70
2019-04-23T06:44:14.352Z,57.30
2019-04-23T06:46:46.050Z,57.50
2019-04-23T06:49:11.668Z,58.40
2019-04-23T06:51:46.582Z,57.90
2019-04-23T06:54:12.308Z,58.00
2019-04-23T06:59:12.398Z,58.80
2019-04-23T07:01:45.890Z,58.90
2019-04-23T07:04:15.065Z,57.90
2019-04-23T07:06:46.835Z,58.40
2019-04-23T07:14:02.438Z,58.80
2019-04-23T07:16:45.125Z,59.10
2019-04-23T07:19:16.560Z,58.80
2019-04-23T07:21:42.435Z,58.00
2019-04-23T07:24:15.128Z,58.80
2019-04-23T07:29:23.901Z,58.50
2019-04-23T07:31:52.186Z,58.60
2019-04-23T07:34:14.065Z,57.60
2019-04-23T07:39:23.322Z,57.60
2019-04-23T07:47:25.118Z,55.90
2019-04-23T07:49:56.550Z,55.90
2019-04-23T07:52:28.972Z,56.90
2019-04-23T07:54:52.589Z,56.10
2019-04-23T07:59:50.104Z,55.50
2019-04-23T08:02:24.101Z,55.30
2019-04-23T08:05:07.611Z,54.40
2019-04-23T08:07:19.946Z,54.50
2019-04-23T08:10:02.055Z,53.20
2019-04-23T08:14:53.461Z,54.20
2019-04-23T08:17:19.067Z,54.30
2019-04-23T08:19:56.425Z,53.80
2019-04-23T08:22:37.253Z,54.40
2019-04-23T08:27:22.391Z,54.30
2019-04-23T08:30:03.331Z,55.70
2019-04-23T08:32:23.590Z,54.30
2019-04-23T08:35:14.074Z,54.30
2019-04-23T08:37:49.702Z,52.80
2019-04-23T08:40:01.827Z,53.00
2019-04-23T08:50:43.065Z,53.10
2019-04-23T08:53:26.361Z,50.60
2019-04-23T08:55:44.195Z,52.00
2019-04-23T08:58:14.359Z,53.30
2019-04-23T09:01:00.629Z,51.70
2019-04-23T09:03:20.000Z,52.20
2019-04-23T09:08:32.812Z,50.00
2019-04-23T09:10:56.738Z,48.70
2019-04-23T09:15:49.766Z,48.00
2019-04-23T09:18:20.961Z,48.80
2019-04-23T09:20:49.672Z,48.80
2019-04-23T09:23:33.043Z,45.30
2019-04-23T09:25:54.109Z,47.10
2019-04-23T09:30:57.417Z,49.30
2019-04-23T09:33:31.229Z,47.30
2019-04-23T09:36:13.298Z,49.70
2019-04-23T09:38:53.657Z,47.50
2019-04-23T09:41:29.916Z,47.00
2019-04-23T09:44:14.876Z,47.30
2019-04-23T09:46:55.777Z,42.00
2019-04-23T09:51:51.320Z,42.60
2019-04-23T09:54:43.069Z,42.70
2019-04-23T09:56:52.075Z,42.60
2019-04-23T09:59:34.224Z,43.70
2019-04-23T10:01:44.943Z,45.20
2019-04-23T10:04:07.477Z,39.30
2019-04-23T10:06:32.108Z,41.70
2019-04-23T10:09:00.141Z,43.10
2019-04-23T10:11:28.399Z,41.60
2019-04-23T10:13:58.594Z,44.30
2019-04-23T10:16:30.347Z,44.00
2019-04-23T10:18:57.569Z,45.10
2019-04-23T10:21:26.304Z,43.40
2019-04-23T10:23:55.046Z,43.70
2019-04-23T10:26:24.033Z,41.20
2019-04-23T10:28:55.975Z,42.00
2019-04-23T10:31:25.131Z,42.30
2019-04-23T10:33:53.905Z,42.90
2019-04-23T10:36:25.846Z,40.20
2019-04-23T10:39:00.642Z,41.40
2019-04-23T10:41:24.248Z,41.50
2019-04-23T10:43:56.690Z,40.50
2019-04-23T10:47:06.717Z,43.00
2019-04-23T10:49:52.231Z,43.10
2019-04-23T10:52:16.872Z,42.20
2019-04-23T10:57:03.815Z,39.90
2019-04-23T10:59:40.442Z,38.70
2019-04-23T11:02:29.742Z,41.50
2019-04-23T11:07:27.187Z,40.20
2019-04-23T11:12:32.287Z,40.40
2019-04-23T11:14:58.249Z,38.10
2019-04-23T11:24:58.887Z,36.60
2019-04-23T11:27:32.933Z,39.90
2019-04-23T11:30:00.131Z,39.20
2019-04-23T11:37:36.324Z,37.00
2019-04-23T11:42:28.093Z,40.00
2019-04-23T11:44:56.670Z,40.10
2019-04-23T11:49:58.220Z,39.20
2019-04-23T12:05:41.390Z,39.90
2019-04-23T12:08:28.239Z,37.20
2019-04-23T12:11:00.271Z,38.70
2019-04-23T12:16:13.238Z,38.60
2019-04-23T12:18:28.674Z,38.80
2019-04-23T12:21:12.856Z,36.40
2019-04-23T12:23:50.508Z,34.30
2019-04-23T12:26:23.268Z,37.50
2019-04-23T12:28:44.148Z,38.00
2019-04-23T12:31:09.636Z,39.00
2019-04-23T12:33:44.047Z,37.40
2019-04-23T12:36:37.253Z,37.60
2019-04-23T12:39:04.353Z,35.20
2019-04-23T12:41:36.256Z,35.90
2019-04-23T12:44:03.493Z,38.70
2019-04-23T12:46:41.586Z,38.50
2019-04-23T12:49:10.683Z,36.70
2019-04-23T12:52:40.627Z,36.90
2019-04-23T12:54:06.963Z,37.20
2019-04-23T12:56:46.453Z,36.30
2019-04-23T12:58:56.758Z,36.80
2019-04-23T13:01:47.111Z,37.00
2019-04-23T13:04:01.376Z,38.90
2019-04-23T13:06:28.314Z,37.10
2019-04-23T13:09:18.865Z,37.80
2019-04-23T13:11:34.550Z,35.70
2019-04-23T13:14:08.569Z,35.70
2019-04-23T13:19:14.311Z,38.00
2019-04-23T13:24:26.017Z,38.00
2019-04-23T13:26:54.907Z,38.70
2019-04-23T13:29:37.936Z,36.20
2019-04-23T13:31:58.236Z,34.90
2019-04-23T13:34:38.051Z,37.50
2019-04-23T13:37:05.446Z,35.50
2019-04-23T13:39:38.892Z,35.10
2019-04-23T13:42:06.290Z,35.10
2019-04-23T13:44:35.447Z,35.20
2019-04-23T13:47:00.110Z,35.70
2019-04-23T13:49:37.754Z,35.60
2019-04-23T13:52:05.624Z,34.60
2019-04-23T13:54:59.931Z,34.90
2019-04-23T13:59:39.754Z,35.10
2019-04-23T14:02:09.077Z,36.00
2019-04-23T14:05:02.122Z,35.10
2019-04-23T14:07:32.591Z,33.60
2019-04-23T14:12:31.912Z,36.30
2019-04-23T14:15:04.900Z,33.80
2019-04-23T14:19:59.894Z,32.40
2019-04-23T14:27:44.556Z,32.90
2019-04-23T14:30:05.520Z,35.50
2019-04-23T14:32:29.401Z,35.00
2019-04-23T14:37:45.678Z,34.50
2019-04-23T14:40:22.224Z,36.10
2019-04-23T14:42:59.973Z,34.00
2019-04-23T14:47:59.064Z,35.40
2019-04-23T14:53:06.388Z,36.80
2019-04-23T14:58:10.554Z,36.50
2019-04-23T15:00:33.816Z,36.00
2019-04-23T15:05:36.057Z,36.90
2019-04-23T15:08:12.081Z,37.30
2019-04-23T15:13:10.842Z,40.00
2019-04-23T15:15:40.487Z,38.30
2019-04-23T15:18:21.289Z,37.70
2019-04-23T15:21:08.354Z,39.90
2019-04-23T15:23:53.266Z,39.60
2019-04-23T15:26:47.800Z,38.70
2019-04-23T15:28:08.973Z,37.50
2019-04-23T15:31:02.401Z,36.60
2019-04-23T15:33:34.289Z,37.90
2019-04-23T15:36:16.096Z,39.80
2019-04-23T15:38:43.597Z,39.60
2019-04-23T15:41:02.597Z,39.10
2019-04-23T15:43:30.787Z,38.50
2019-04-23T15:46:02.873Z,39.50
2019-04-23T15:48:33.623Z,39.20
2019-04-23T15:51:04.370Z,37.90
2019-04-23T15:53:24.571Z,38.10
2019-04-23T15:56:13.896Z,38.40
2019-04-23T16:03:19.748Z,33.00
2019-04-23T16:05:46.806Z,32.10
2019-04-23T16:08:51.402Z,29.90
2019-04-23T16:11:25.950Z,29.30
2019-04-23T16:14:08.243Z,30.20
2019-04-23T16:16:17.705Z,29.90
2019-04-23T16:19:09.583Z,31.80
2019-04-23T16:21:48.342Z,31.80
2019-04-23T16:24:13.514Z,32.20
2019-04-23T16:31:54.632Z,30.10
2019-04-23T16:34:19.183Z,30.40
2019-04-23T16:36:43.824Z,31.10
2019-04-23T16:44:20.275Z,32.10
2019-04-23T16:46:52.741Z,34.10
2019-04-23T16:49:17.886Z,36.50
2019-04-23T16:54:25.798Z,33.40
2019-04-23T16:59:32.835Z,35.20
2019-04-23T17:01:50.415Z,36.40
2019-04-23T17:06:54.768Z,33.50
2019-04-23T17:09:21.533Z,32.70
2019-04-23T17:11:59.119Z,33.50
2019-04-23T17:16:41.687Z,35.10
2019-04-23T17:19:26.233Z,33.20
2019-04-23T17:21:57.298Z,33.80
2019-04-23T17:26:54.333Z,34.80
2019-04-23T17:29:41.328Z,34.80
2019-04-23T17:31:44.831Z,35.30
2019-04-23T17:34:30.669Z,35.10
2019-04-23T17:37:05.309Z,34.70
2019-04-23T17:39:52.759Z,34.30
2019-04-23T17:42:19.622Z,35.00
2019-04-23T17:47:22.113Z,34.80
2019-04-23T17:49:59.057Z,37.10
2019-04-23T17:52:28.031Z,38.40
2019-04-23T17:54:54.852Z,37.90
2019-04-23T17:57:26.430Z,37.60
2019-04-23T18:00:09.957Z,38.00
2019-04-23T18:07:41.085Z,42.60
2019-04-23T18:10:12.789Z,44.00
2019-04-23T18:12:41.221Z,44.80
2019-04-23T18:15:02.597Z,45.70
2019-04-23T18:17:35.011Z,45.80
2019-04-23T18:20:16.673Z,46.40
2019-04-23T18:25:25.756Z,47.90
2019-04-23T18:30:32.080Z,48.10
2019-04-23T18:38:14.732Z,49.70
2019-04-23T18:40:58.200Z,49.90
2019-04-23T18:43:23.102Z,50.00
2019-04-23T18:45:53.848Z,50.80
2019-04-23T18:48:39.198Z,51.30
2019-04-23T18:51:00.287Z,51.10
2019-04-23T18:53:45.701Z,51.90
2019-04-23T18:56:06.880Z,51.70
2019-04-23T18:58:47.177Z,52.00
2019-04-23T19:01:05.597Z,51.80
2019-04-23T19:03:50.934Z,50.90
2019-04-23T19:14:25.678Z,52.30
2019-04-23T19:17:08.882Z,52.30
2019-04-23T19:22:14.404Z,51.60
2019-04-23T19:24:26.364Z,52.90
2019-04-23T19:29:36.998Z,52.50
2019-04-23T19:31:54.025Z,52.70
2019-04-23T19:44:31.366Z,54.00
2019-04-23T19:47:03.285Z,55.30
2019-04-23T19:54:34.368Z,56.30
2019-04-23T19:57:01.914Z,56.90
2019-04-23T19:59:39.552Z,57.80
2019-04-23T20:02:01.308Z,57.60
2019-04-23T20:04:39.406Z,57.90
2019-04-23T20:07:15.922Z,58.60
2019-04-23T20:12:00.987Z,58.10
2019-04-23T20:14:32.131Z,58.90
2019-04-23T20:19:40.690Z,57.70
2019-04-23T20:22:11.123Z,58.30
2019-04-23T20:24:37.249Z,58.10
2019-04-23T20:27:15.524Z,59.30
2019-04-23T20:29:50.836Z,59.10
2019-04-23T20:33:06.489Z,59.50
2019-04-23T20:37:12.603Z,58.70
2019-04-23T20:39:50.431Z,59.60
2019-04-23T20:44:53.534Z,59.20
2019-04-23T20:47:15.575Z,59.30
2019-04-23T20:52:08.841Z,60.00
2019-04-23T20:57:43.795Z,59.40
2019-04-23T21:10:51.009Z,60.80
2019-04-23T21:15:30.937Z,62.40
2019-04-23T21:17:58.062Z,62.00
2019-04-23T21:30:55.843Z,61.50
2019-04-23T21:33:11.597Z,62.50
2019-04-23T21:38:39.510Z,63.00
2019-04-23T21:41:08.692Z,62.20
2019-04-23T21:43:47.433Z,62.90
2019-04-23T21:48:53.082Z,63.10
2019-04-23T21:51:15.801Z,62.60
2019-04-23T21:53:42.762Z,62.40
2019-04-23T21:56:10.882Z,65.10
2019-04-23T21:58:49.573Z,64.20
2019-04-23T22:01:32.128Z,64.60
2019-04-23T22:04:08.595Z,63.70
2019-04-23T22:06:28.300Z,62.90
2019-04-23T22:09:00.875Z,63.20
2019-04-23T22:14:06.011Z,63.00
2019-04-23T22:16:36.971Z,62.70
2019-04-23T22:21:33.332Z,62.50
2019-04-23T22:29:17.699Z,62.90
2019-04-23T22:31:37.829Z,63.00
2019-04-23T22:36:42.855Z,63.40
2019-04-23T22:39:03.061Z,63.40
2019-04-23T22:46:48.396Z,64.50
2019-04-23T22:56:48.709Z,65.70
2019-04-23T23:01:59.185Z,63.80
2019-04-23T23:04:15.159Z,64.00
2019-04-23T23:11:49.790Z,64.10
2019-04-23T23:16:44.984Z,64.30
2019-04-23T23:19:22.212Z,64.90
2019-04-23T23:21:59.360Z,65.70
2019-04-23T23:24:15.413Z,65.80
2019-04-23T23:26:50.023Z,65.10
2019-04-23T23:29:16.050Z,65.20
2019-04-23T23:31:51.880Z,65.20
2019-04-23T23:34:15.488Z,64.50
2019-04-23T23:36:54.833Z,64.20
2019-04-23T23:39:22.795Z,63.00
2019-04-23T23:41:52.481Z,63.60
2019-04-23T23:46:56.291Z,66.00
2019-04-23T23:49:20.347Z,65.50
2019-04-23T23:51:49.340Z,66.40
2019-04-23T23:54:13.609Z,67.00
2019-04-23T23:57:00.778Z,66.20
